Clarenville, Canada
Current Conditions -  °F | °C
As of 9:00 AM on Friday 24 Oct 2014 (Local Time) from CYQX Reporting Station
Moderate Fog Moderate Fog  
Wind Chill: 37°   Ceiling: 100
Heat Index: 41°   Visibility: 0.12mi
Dew Point: 41°   Wind: 6mph
Humidity: 100%   Direction: 90°E
Pressure: 30.04"   Gusts: NA
Location:  48.15°N, 53.97°W
Report Text: CYQX 241100Z 09005KT 1/8SM R03/1400FT/N R13/1000FT/N FG VV001 05/05 A3004 RMK FG8 SLP179
Loading
Personal Weather Stations






























Interactive Weather Map
Tropical Storm Tracking
New forecast layout! Learn more

10-Day Weather Forecast

Advertisements
Track Severe Weather on mobile